| time (UTC) | temp F | wind direction | speed knots | gust knots | rain 1hr in | rain 24hr in | rain mn in | humidity % | barometer mb |
| 20260508083108 | 32 | 360 | 4.3 | 8.7 | 0.00 | 0.02 | 0.02 | 95 | 1024.2 |
| 20260508081502 | 32 | 360 | 9.6 | 11.3 | 0.00 | 0.02 | 0.02 | 96 | 1024.0 |
| 20260508080104 | 31 | 360 | 4.3 | 11.3 | 0.00 | 0.02 | 0.02 | 98 | 1023.9 |
| 20260508074550 | 32 | 360 | 7.8 | 11.3 | 0.01 | 0.02 | 0.02 | 95 | 1023.9 |
| 20260508073055 | 32 | 360 | 6.1 | 10.4 | 0.01 | 0.02 | 0.02 | 97 | 1023.8 |
| 20260508071543 | 31 | 360 | 7.8 | 11.3 | 0.01 | 0.02 | 0.02 | 98 | 1023.8 |
| 20260508070006 | 31 | 360 | 6.1 | 12.2 | 0.00 | 0.02 | 0.01 | 98 | 1023.7 |
| 20260508064558 | 31 | 360 | 4.3 | 9.6 | 0.00 | 0.02 | 0.01 | 97 | 1023.5 |
| 20260508063000 | 31 | 360 | 5.2 | 8.7 | 0.00 | 0.02 | 0.01 | 98 | 1023.3 |
| 20260508061549 | 31 | 360 | 5.2 | 8.7 | 0.00 | 0.02 | 0.01 | 98 | 1023.3 |
| 20260508060049 | 31 | 360 | 3.5 | 7.8 | 0.00 | 0.02 | 0.01 | 97 | 1023.2 |
| 20260508054557 | 31 | 360 | 4.3 | 11.3 | 0.01 | 0.03 | 0.01 | 94 | 1023.0 |
| 20260508053047 | 33 | 360 | 0.9 | 3.5 | 0.01 | 0.03 | 0.01 | 93 | 1022.8 |
| 20260508051553 | 32 | 360 | 3.5 | 6.1 | 0.01 | 0.03 | 0.01 | 94 | 1022.6 |
| 20260508050058 | 31 | 360 | 4.3 | 7.0 | 0.01 | 0.03 | 0.01 | 95 | 1022.5 |
| 20260508044548 | 31 | 360 | 5.2 | 7.0 | 0.00 | 0.02 | 0.00 | 97 | 1022.4 |
| 20260508043047 | 31 | 360 | 4.3 | 7.8 | 0.00 | 0.02 | 0.00 | 99 | 1022.2 |
| 20260508041541 | 31 | 360 | 4.3 | 7.0 | 0.00 | 0.02 | 0.00 | 99 | 1022.2 |
| 20260508034543 | 31 | 360 | 2.6 | 7.8 | 0.00 | 0.02 | 0.00 | 99 | 1022.2 |
| 20260508033053 | 30 | 360 | 0.0 | 3.5 | 0.00 | 0.02 | 0.00 | 99 | 1022.0 |
| 20260508031541 | 31 | 360 | 1.7 | 2.6 | 0.00 | 0.02 | 0.00 | 98 | 1021.9 |
| 20260508030002 | 31 | 360 | 2.6 | 3.5 | 0.00 | 0.02 | 0.00 | 98 | 1021.8 |
| 20260508024549 | 31 | 360 | 3.5 | 4.3 | 0.00 | 0.02 | 0.00 | 98 | 1021.7 |
| 20260508023058 | 31 | 360 | 3.5 | 6.1 | 0.00 | 0.02 | 0.00 | 98 | 1021.6 |
| 20260508021549 | 31 | 360 | 5.2 | 7.8 | 0.00 | 0.02 | 0.00 | 98 | 1021.5 |
| 20260508020004 | 31 | 360 | 7.8 | 10.4 | 0.00 | 0.02 | 0.00 | 98 | 1021.4 |
| 20260508014550 | 31 | 360 | 6.1 | 7.8 | 0.00 | 0.02 | 0.00 | 98 | 1021.4 |
| 20260508013056 | 31 | 360 | 5.2 | 7.0 | 0.00 | 0.02 | 0.00 | 98 | 1021.3 |
| 20260508011545 | 31 | 360 | 4.3 | 6.1 | 0.00 | 0.02 | 0.00 | 99 | 1021.2 |
| 20260508010046 | 30 | 360 | 3.5 | 6.1 | 0.00 | 0.02 | 0.00 | 98 | 1021.1 |
| 20260508004610 | 31 | 360 | 4.3 | 7.0 | 0.00 | 0.02 | 0.00 | 98 | 1020.9 |
| 20260508003058 | 32 | 360 | 5.2 | 7.0 | 0.00 | 0.02 | 0.00 | 94 | 1020.9 |
| 20260508001547 | 32 | 360 | 3.5 | 6.1 | 0.00 | 0.02 | 0.00 | 93 | 1020.5 |
| 20260508000054 | 32 | 360 | 4.3 | 7.0 | 0.00 | 0.02 | 0.00 | 93 | 1020.4 |
| 20260507234546 | 32 | 360 | 2.6 | 5.2 | 0.00 | 0.02 | 0.00 | 95 | 1020.3 |
| 20260507233043 | 31 | 360 | 2.6 | 4.3 | 0.00 | 0.02 | 0.00 | 96 | 1020.3 |
| 20260507231555 | 31 | 360 | 3.5 | 7.8 | 0.00 | 0.02 | 0.00 | 97 | 1020.1 |
| 20260507230047 | 32 | 360 | 6.1 | 7.8 | 0.00 | 0.02 | 0.00 | 96 | 1020.0 |
| 20260507224553 | 32 | 360 | 3.5 | 6.1 | 0.00 | 0.02 | 0.00 | 96 | 1020.0 |
| 20260507223059 | 32 | 360 | 0.0 | 2.6 | 0.00 | 0.02 | 0.00 | 96 | 1019.9 |
| 20260507221550 | 32 | 360 | 0.9 | 3.5 | 0.00 | 0.02 | 0.00 | 93 | 1019.7 |
| 20260507220053 | 32 | 360 | 2.6 | 5.2 | 0.00 | 0.02 | 0.00 | 92 | 1019.6 |
| 20260507214619 | 32 | 360 | 1.7 | 3.5 | 0.00 | 0.02 | 0.02 | 93 | 1019.6 |
| 20260507213046 | 32 | 360 | 3.5 | 5.2 | 0.00 | 0.02 | 0.02 | 93 | 1019.5 |
| 20260507211615 | 32 | 360 | 1.7 | 3.5 | 0.00 | 0.02 | 0.02 | 92 | 1019.4 |
| 20260507210056 | 32 | 360 | 0.9 | 3.5 | 0.00 | 0.02 | 0.02 | 92 | 1019.2 |
| 20260507204542 | 32 | 360 | 1.7 | 3.5 | 0.00 | 0.02 | 0.02 | 91 | 1019.0 |
| 20260507203052 | 33 | 360 | 2.6 | 5.2 | 0.00 | 0.02 | 0.02 | 91 | 1018.9 |
| 20260507201558 | 33 | 360 | 3.5 | 5.2 | 0.00 | 0.02 | 0.02 | 90 | 1018.9 |
| 20260507200057 | 33 | 360 | 4.3 | 6.1 | 0.00 | 0.02 | 0.02 | 90 | 1018.9 |
| 20260507194617 | 33 | 360 | 4.3 | 7.0 | 0.00 | 0.02 | 0.02 | 92 | 1018.7 |
| 20260507193053 | 33 | 360 | 6.1 | 7.8 | 0.00 | 0.02 | 0.02 | 91 | 1018.6 |
| 20260507191550 | 33 | 360 | 7.0 | 9.6 | 0.00 | 0.02 | 0.02 | 90 | 1018.5 |
| 20260507190047 | 33 | 360 | 7.8 | 9.6 | 0.00 | 0.02 | 0.02 | 89 | 1018.4 |
| 20260507184605 | 32 | 360 | 6.1 | 10.4 | 0.00 | 0.02 | 0.02 | 93 | 1018.2 |
| 20260507183055 | 32 | 360 | 10.4 | 14.8 | 0.00 | 0.02 | 0.02 | 95 | 1018.1 |
| 20260507181504 | 34 | 360 | 7.0 | 11.3 | 0.00 | 0.02 | 0.02 | 85 | 1017.9 |
| 20260507180051 | 34 | 360 | 8.7 | 13.0 | 0.00 | 0.02 | 0.02 | 84 | 1017.8 |
| 20260507174601 | 34 | 360 | 11.3 | 16.5 | 0.00 | 0.02 | 0.02 | 83 | 1017.7 |
| 20260507173058 | 34 | 360 | 13.0 | 15.6 | 0.00 | 0.02 | 0.02 | 82 | 1017.6 |
| 20260507171551 | 35 | 360 | 13.0 | 18.2 | 0.00 | 0.02 | 0.02 | 79 | 1017.6 |
| 20260507164505 | 35 | 360 | 13.0 | 17.4 | 0.00 | 0.03 | 0.02 | 75 | 1017.4 |
| 20260507163004 | 35 | 360 | 12.2 | 17.4 | 0.00 | 0.03 | 0.02 | 79 | 1017.3 |
| 20260507161558 | 35 | 360 | 14.8 | 20.0 | 0.00 | 0.03 | 0.02 | 75 | 1017.2 |
| 20260507160001 | 35 | 360 | 9.6 | 15.6 | 0.00 | 0.03 | 0.02 | 76 | 1017.1 |
| 20260507154549 | 35 | 360 | 11.3 | 20.0 | 0.00 | 0.03 | 0.02 | 81 | 1017.1 |
| 20260507153054 | 34 | 360 | 12.2 | 19.1 | 0.00 | 0.03 | 0.02 | 79 | 1017.0 |
| 20260507151543 | 34 | 360 | 9.6 | 14.8 | 0.00 | 0.03 | 0.02 | 86 | 1017.0 |
| 20260507150043 | 35 | 360 | 10.4 | 16.5 | 0.00 | 0.03 | 0.02 | 84 | 1016.9 |
| 20260507144559 | 34 | 360 | 12.2 | 17.4 | 0.00 | 0.03 | 0.02 | 87 | 1016.8 |
| 20260507143004 | 35 | 360 | 10.4 | 18.2 | 0.00 | 0.03 | 0.02 | 87 | 1016.7 |
| 20260507141552 | 35 | 360 | 12.2 | 21.7 | 0.00 | 0.03 | 0.02 | 80 | 1016.6 |
| 20260507140054 | 35 | 360 | 13.9 | 19.1 | 0.00 | 0.03 | 0.02 | 84 | 1016.6 |
| 20260507134545 | 35 | 360 | 9.6 | 15.6 | 0.01 | 0.03 | 0.02 | 84 | 1016.3 |
| 20260507133002 | 35 | 360 | 12.2 | 17.4 | 0.01 | 0.03 | 0.02 | 80 | 1016.3 |
| 20260507131610 | 35 | 360 | 8.7 | 15.6 | 0.01 | 0.03 | 0.02 | 82 | 1016.2 |
| 20260507130053 | 35 | 360 | 8.7 | 13.0 | 0.01 | 0.03 | 0.02 | 84 | 1016.2 |
| 20260507124600 | 33 | 360 | 5.2 | 12.2 | 0.00 | 0.02 | 0.02 | 88 | 1016.1 |
| 20260507123056 | 32 | 360 | 7.0 | 10.4 | 0.00 | 0.02 | 0.02 | 91 | 1016.1 |
| 20260507121545 | 32 | 360 | 12.2 | 18.2 | 0.00 | 0.02 | 0.02 | 92 | 1016.3 |
| 20260507120050 | 31 | 360 | 7.8 | 16.5 | 0.00 | 0.02 | 0.02 | 94 | 1016.3 |
| 20260507114544 | 33 | 360 | 3.5 | 7.0 | 0.00 | 0.03 | 0.02 | 84 | 1016.1 |
| 20260507113044 | 33 | 360 | 5.2 | 7.8 | 0.00 | 0.03 | 0.02 | 85 | 1015.7 |
| 20260507111555 | 31 | 360 | 7.0 | 9.6 | 0.00 | 0.03 | 0.02 | 90 | 1015.5 |
| 20260507110058 | 31 | 360 | 8.7 | 18.2 | 0.00 | 0.03 | 0.02 | 94 | 1015.4 |
| 20260507104551 | 34 | 360 | 14.8 | 20.0 | 0.00 | 0.03 | 0.02 | 80 | 1015.6 |
| 20260507103055 | 34 | 360 | 9.6 | 15.6 | 0.00 | 0.03 | 0.02 | 77 | 1015.2 |
| 20260507101552 | 34 | 360 | 7.8 | 13.0 | 0.00 | 0.03 | 0.02 | 83 | 1015.0 |
| 20260507100048 | 35 | 360 | 8.7 | 13.0 | 0.00 | 0.03 | 0.02 | 81 | 1014.9 |
| 20260507094552 | 33 | 360 | 7.8 | 12.2 | 0.00 | 0.04 | 0.02 | 84 | 1014.7 |
| 20260507093059 | 34 | 360 | 8.7 | 13.0 | 0.00 | 0.04 | 0.02 | 83 | 1014.7 |
| 20260507091550 | 34 | 360 | 5.2 | 15.6 | 0.00 | 0.04 | 0.02 | 81 | 1014.7 |
| 20260507090052 | 34 | 360 | 2.6 | 13.9 | 0.00 | 0.04 | 0.02 | 81 | 1014.5 |
| 20260507084504 | 34 | 360 | 7.8 | 17.4 | 0.00 | 0.04 | 0.02 | 82 | 1014.3 |